WetterOnline ( http://www.wetteronline.de )

Wetter aktuell Lengenfeld

Aktuelles Wetter: Carlsfeld (899m)

6-stündlich | Neueste Meldungen
Ortszeit Temperatur Wetter
Do, 20.09. 14:00 22.7° C leicht bewölkt
Do, 20.09. 8:00 15.1° C wolkenlos
Do, 20.09. 2:00 14.2° C wolkenlos
Mi, 19.09. 20:00 17.6° C wolkenlos
Mi, 19.09. 14:00 22.0° C wolkenlos
Mi, 19.09. 8:00 13.7° C bedeckt
Mi, 19.09. 2:00 13.3° C wolkenlos
Di, 18.09. 20:00 17.6° C wolkenlos
Ortszeit Temperatur Wetter
Do, 20.09. 18:00 22.0° C fast wolkenlos
Do, 20.09. 17:50 22.0° C fast wolkenlos
Do, 20.09. 17:40 21.9° C fast wolkenlos
Do, 20.09. 17:30 22.0° C fast wolkenlos
Do, 20.09. 17:20 22.0° C fast wolkenlos
Do, 20.09. 17:10 22.2° C fast wolkenlos
Do, 20.09. 17:00 22.8° C wolkenlos
Do, 20.09. 16:30 23.0° C wolkenlos
Do, 20.09. 16:00 22.9° C leicht bewölkt
Do, 20.09. 15:30 22.8° C leicht bewölkt
Do, 20.09. 15:00 22.7° C leicht bewölkt
Ortszeit Relative Feuchte Sichtweite
Do, 20.09. 14:00 52% 27 km
Do, 20.09. 8:00 80% 30 km
Do, 20.09. 2:00 83% 50 km
Mi, 19.09. 20:00 66% 50 km
Mi, 19.09. 14:00 47% 30 km
Mi, 19.09. 8:00 85% 19 km
Mi, 19.09. 2:00 83% 25 km
Di, 18.09. 20:00 61% 35 km
Ortszeit Relative Feuchte Sichtweite
Do, 20.09. 18:00 53% 40 km
Do, 20.09. 17:50 53% -
Do, 20.09. 17:40 53% -
Do, 20.09. 17:30 53% 35 km
Do, 20.09. 17:20 53% -
Do, 20.09. 17:10 51% -
Do, 20.09. 17:00 47% 40 km
Do, 20.09. 16:30 48% 40 km
Do, 20.09. 16:00 49% 23 km
Do, 20.09. 15:30 51% 29 km
Do, 20.09. 15:00 52% 30 km
Ortszeit Niederschlagsmenge Niederschlagsart
Do, 20.09. 14:00 0.0 l/m2 in 6 Std. -
Do, 20.09. 8:00 0.0 l/m2 in 12 Std. -
Do, 20.09. 2:00 0.0 l/m2 in 6 Std. -
Mi, 19.09. 20:00 0.1 l/m2 in 12 Std. -
Mi, 19.09. 14:00 0.1 l/m2 in 6 Std. Regen
Mi, 19.09. 8:00 0.0 l/m2 in 12 Std. -
Mi, 19.09. 2:00 0.0 l/m2 in 6 Std. -
Di, 18.09. 20:00 0.0 l/m2 in 12 Std. -
Ortszeit Niederschlagsmenge Niederschlagsart
Do, 20.09. 18:00 0.0 l/m2 in 1 Std. -
Do, 20.09. 17:50 keine Meldung -
Do, 20.09. 17:40 keine Meldung -
Do, 20.09. 17:30 0.0 l/m2 in 1 Std. -
Do, 20.09. 17:20 keine Meldung -
Do, 20.09. 17:10 keine Meldung -
Do, 20.09. 17:00 0.0 l/m2 in 1 Std. -
Do, 20.09. 16:30 0.0 l/m2 in 1 Std. -
Do, 20.09. 16:00 0.0 l/m2 in 1 Std. -
Do, 20.09. 15:30 0.0 l/m2 in 1 Std. -
Do, 20.09. 15:00 0.0 l/m2 in 1 Std. -
Ortszeit Stärke Spitze Richtung
km/h Bft. km/h Grad Sektor
Do, 20.09. 14:00 14 3 32 220° SW
Do, 20.09. 8:00 9 2 19 230° SW
Do, 20.09. 2:00 7 2 19 230° SW
Mi, 19.09. 20:00 6 1 24 220° SW
Mi, 19.09. 14:00 11 2 22 220° SW
Mi, 19.09. 8:00 7 2 18 240° SW
Mi, 19.09. 2:00 4 1 14 220° SW
Di, 18.09. 20:00 7 2 25 220° SW
Ortszeit Stärke Spitze Richtung
km/h Bft. km/h Grad Sektor
Do, 20.09. 18:00 9 2 26 240° SW
Do, 20.09. 17:50 9 2 - 240° SW
Do, 20.09. 17:40 9 2 - 230° SW
Do, 20.09. 17:30 9 2 24 240° SW
Do, 20.09. 17:20 9 2 - 240° SW
Do, 20.09. 17:10 11 2 - 230° SW
Do, 20.09. 17:00 11 2 33 220° SW
Do, 20.09. 16:30 11 2 32 240° SW
Do, 20.09. 16:00 15 3 31 220° SW
Do, 20.09. 15:30 18 3 32 240° SW
Do, 20.09. 15:00 14 3 32 230° SW
Ortszeit Untergrenze Bedeckung Gattung
total tief tief mittel hoch
Do, 20.09. 14:00 1170 m 7/8 1/8 - - -
Do, 20.09. 8:00 - 0/8 0/8 - - -
Do, 20.09. 2:00 - 0/8 0/8 - - -
Mi, 19.09. 20:00 - 0/8 0/8 - - -
Mi, 19.09. 14:00 - 0/8 0/8 - - -
Mi, 19.09. 8:00 5400 m 8/8 8/8 - - -
Mi, 19.09. 2:00 - 0/8 0/8 - - -
Di, 18.09. 20:00 - 0/8 0/8 - - -
Ortszeit Bedeckungsgrad in Achtel und Wolkenuntergrenze
Do, 20.09. 18:00 1(8400m)
Do, 20.09. 17:50 1(8400m)
Do, 20.09. 17:40 2(8400m)
Do, 20.09. 17:30 1(1410m)
Do, 20.09. 17:20 1(1410m)
Do, 20.09. 17:10 1(1440m)
Do, 20.09. 17:00 1(1380m)
Do, 20.09. 16:30 keine Wolken
Do, 20.09. 16:00 3(8700m)
Do, 20.09. 15:30 1(1290m) 4(8700m)
Do, 20.09. 15:00 1(1230m) 5(7800m)
Ortszeit Stationsdruck (hPa) Tendenz (hPa in 3 Std.)
Do, 20.09. 14:00 918 - 1,0
Do, 20.09. 8:00 919 - 0,2
Do, 20.09. 2:00 919 - 0,1
Mi, 19.09. 20:00 919 + 0,4
Mi, 19.09. 14:00 919 - 0,2
Mi, 19.09. 8:00 918 + 0,8
Mi, 19.09. 2:00 917 0,0
Di, 18.09. 20:00 916 + 0,2
Ortszeit Stationsdruck (hPa) Tendenz (hPa in 3 Std.)
Do, 20.09. 18:00 917 - 1,0
Do, 20.09. 17:50 917 keine Meldung
Do, 20.09. 17:40 917 keine Meldung
Do, 20.09. 17:30 917 - 1,3
Do, 20.09. 17:20 917 keine Meldung
Do, 20.09. 17:10 917 keine Meldung
Do, 20.09. 17:00 917 - 1,2
Do, 20.09. 16:30 917 - 1,3
Do, 20.09. 16:00 917 - 1,4
Do, 20.09. 15:30 918 - 1,3
Do, 20.09. 15:00 918 - 1,2
Ortszeit Schneehöhe (cm)
Do, 20.09. 14:00 -
Do, 20.09. 8:00 -
Do, 20.09. 2:00 -
Mi, 19.09. 20:00 -
Mi, 19.09. 14:00 -
Mi, 19.09. 8:00 -
Mi, 19.09. 2:00 -
Di, 18.09. 20:00 -
Ortszeit Schneehöhe (cm)
Do, 20.09. 18:00 -
Do, 20.09. 17:50 -
Do, 20.09. 17:40 -
Do, 20.09. 17:30 -
Do, 20.09. 17:20 -
Do, 20.09. 17:10 -
Do, 20.09. 17:00 -
Do, 20.09. 16:30 -
Do, 20.09. 16:00 -
Do, 20.09. 15:30 -
Do, 20.09. 15:00 -
Link zu dieser Seite / Seite empfehlen

Das Wetter in ...